Time;durP1;ratioP1;P1;durP2;ratioP2;P2;SDS_P1;SDS_P2;PMS_P1;PMS_P2;Temp;Humidity;BMP_temperature;BMP_pressure;BME280_temperature;BME280_humidity;BME280_pressure;Samples;Min_cycle;Max_cycle;Signal;HPM_P1;HPM_P2
2021/09/27 00:02:21;;;;;;;260.03;247.57;;;13.70;99.90;;;;;;6245559;23;20403;-83
2021/09/27 00:04:49;;;;;;;254.87;243.27;;;13.70;99.90;;;;;;6255963;23;20465;-85
2021/09/27 00:07:15;;;;;;;249.60;238.40;;;13.80;99.90;;;;;;6255848;23;20909;-84
2021/09/27 00:09:44;;;;;;;230.20;219.40;;;13.80;99.90;;;;;;6246156;23;20403;-83
2021/09/27 00:12:12;;;;;;;229.67;218.80;;;13.60;99.90;;;;;;6256251;23;20414;-84
2021/09/27 00:14:41;;;;;;;212.87;202.87;;;13.60;99.90;;;;;;6244377;23;20428;-84
2021/09/27 00:17:09;;;;;;;215.37;205.60;;;13.50;99.90;;;;;;6256067;23;20434;-84
2021/09/27 00:19:37;;;;;;;220.27;209.97;;;13.50;99.90;;;;;;6245698;23;20888;-83
2021/09/27 00:22:05;;;;;;;228.17;217.80;;;13.50;99.90;;;;;;6256361;23;21084;-83
2021/09/27 00:24:32;;;;;;;223.33;212.87;;;13.50;99.90;;;;;;6246126;23;20708;-83
2021/09/27 00:26:59;;;;;;;217.10;206.57;;;13.50;99.90;;;;;;6245976;23;20447;-83
2021/09/27 00:29:27;;;;;;;240.73;229.77;;;13.50;99.90;;;;;;6244660;23;20400;-83
2021/09/27 00:31:55;;;;;;;249.50;237.70;;;13.40;99.90;;;;;;6256109;23;20789;-83
2021/09/27 00:34:22;;;;;;;251.90;240.30;;;13.50;99.90;;;;;;6256305;23;20439;-83
2021/09/27 00:36:49;;;;;;;232.30;221.10;;;13.50;99.90;;;;;;6246031;23;20434;-84
2021/09/27 00:39:16;;;;;;;225.50;213.80;;;13.50;99.90;;;;;;6245513;23;20514;-84
2021/09/27 00:41:44;;;;;;;255.23;243.03;;;13.50;99.90;;;;;;6256209;23;20403;-83
2021/09/27 00:44:11;;;;;;;261.13;249.10;;;13.40;99.90;;;;;;6254719;23;20411;-83
2021/09/27 00:46:38;;;;;;;274.70;262.27;;;13.50;99.90;;;;;;6245440;23;20463;-83
2021/09/27 00:49:06;;;;;;;289.80;276.60;;;13.60;99.90;;;;;;6256174;23;20457;-84
2021/09/27 00:51:38;;;;;;;284.20;271.10;;;13.70;99.90;;;;;;6245520;23;20380;-83
2021/09/27 00:54:09;;;;;;;290.00;276.53;;;13.70;99.90;;;;;;6245929;23;20495;-84
2021/09/27 00:56:41;;;;;;;289.03;275.97;;;13.80;99.90;;;;;;6256022;23;20400;-84
2021/09/27 00:59:09;;;;;;;299.30;285.83;;;13.90;99.90;;;;;;6235104;23;20510;-84
2021/09/27 01:01:36;;;;;;;295.50;282.07;;;14.10;99.90;;;;;;6245773;23;20400;-84
2021/09/27 01:04:04;;;;;;;279.97;267.07;;;14.10;99.90;;;;;;6255618;23;20758;-83
2021/09/27 01:06:46;;;;;;;270.67;257.50;;;14.00;99.90;;;;;;6255579;23;20446;-83
2021/09/27 01:09:24;;;;;;;251.20;239.70;;;14.00;99.90;;;;;;6245635;23;20798;-83
2021/09/27 01:12:15;;;;;;;237.07;225.57;;;14.10;99.90;;;;;;6245862;23;20399;-84
2021/09/27 01:15:02;;;;;;;228.37;217.63;;;14.00;99.90;;;;;;6245226;23;20442;-83
2021/09/27 01:17:40;;;;;;;227.13;216.07;;;13.90;99.90;;;;;;6247650;23;20429;-83
2021/09/27 01:20:47;;;;;;;239.20;227.70;;;13.80;99.90;;;;;;6247903;23;20399;-83
2021/09/27 01:24:08;;;;;;;250.00;238.13;;;13.90;99.90;;;;;;6247462;23;20446;-83
2021/09/27 01:27:13;;;;;;;262.80;250.37;;;13.90;99.90;;;;;;6247856;23;20399;-84
2021/09/27 01:30:07;;;;;;;266.10;253.83;;;13.90;99.90;;;;;;6200567;23;20414;-84
2021/09/27 01:32:39;;;;;;;266.70;254.20;;;13.80;99.90;;;;;;6227116;23;20497;-84
2021/09/27 01:35:19;;;;;;;272.43;259.40;;;13.80;99.90;;;;;;6247739;23;20487;-84
2021/09/27 01:37:56;;;;;;;264.10;252.10;;;14.00;99.90;;;;;;6257431;23;20430;-83
2021/09/27 01:40:27;;;;;;;250.27;237.83;;;13.80;99.90;;;;;;6257224;23;20942;-84
2021/09/27 01:43:01;;;;;;;254.80;242.23;;;13.80;99.90;;;;;;6245995;23;20406;-84
2021/09/27 01:45:35;;;;;;;265.13;252.73;;;13.80;99.90;;;;;;6257501;23;20398;-83
2021/09/27 01:48:12;;;;;;;251.63;239.20;;;14.00;99.90;;;;;;6247213;23;20455;-84
2021/09/27 01:50:44;;;;;;;259.37;246.87;;;14.00;99.90;;;;;;6257643;23;20452;-83
2021/09/27 01:53:18;;;;;;;246.47;234.37;;;14.10;99.90;;;;;;6257283;23;20404;-83
2021/09/27 01:55:53;;;;;;;261.73;249.40;;;14.00;99.90;;;;;;6257185;23;20434;-83
2021/09/27 01:58:27;;;;;;;247.37;235.67;;;13.90;99.90;;;;;;6245682;23;20500;-84
2021/09/27 02:01:00;;;;;;;241.47;229.77;;;14.00;99.90;;;;;;6257343;23;20438;-84
2021/09/27 02:03:34;;;;;;;243.80;231.57;;;13.90;99.90;;;;;;6257191;23;20399;-82
2021/09/27 02:06:08;;;;;;;237.27;225.47;;;13.80;99.90;;;;;;6257515;23;20418;-84
2021/09/27 02:08:42;;;;;;;233.93;222.50;;;13.70;99.90;;;;;;6257543;23;20879;-83
2021/09/27 02:11:22;;;;;;;237.13;225.73;;;13.60;99.90;;;;;;6247410;23;20918;-84
2021/09/27 02:13:57;;;;;;;245.63;233.53;;;13.50;99.90;;;;;;6255705;23;20456;-83
2021/09/27 02:16:32;;;;;;;255.87;243.67;;;13.50;99.90;;;;;;6257245;23;20453;-82
2021/09/27 02:19:07;;;;;;;255.93;243.87;;;13.60;99.90;;;;;;6246867;23;21009;-84
2021/09/27 02:21:41;;;;;;;264.47;251.67;;;13.60;99.90;;;;;;6247344;23;20400;-84
2021/09/27 02:24:16;;;;;;;276.60;263.70;;;13.50;99.90;;;;;;6246727;23;20402;-82
2021/09/27 02:26:44;;;;;;;282.80;268.63;;;13.70;99.90;;;;;;6256398;23;20439;-84
2021/09/27 02:29:12;;;;;;;288.13;273.97;;;13.60;99.90;;;;;;6255488;23;20439;-83
2021/09/27 02:31:44;;;;;;;284.60;270.13;;;13.70;99.90;;;;;;6247137;23;20450;-84
2021/09/27 02:34:18;;;;;;;311.53;297.03;;;13.50;99.90;;;;;;6247166;23;20395;-82
2021/09/27 02:36:54;;;;;;;297.77;283.50;;;13.50;99.90;;;;;;6246927;23;20487;-84
2021/09/27 02:39:29;;;;;;;287.87;273.63;;;13.50;99.90;;;;;;6257122;23;20442;-83
2021/09/27 02:42:04;;;;;;;293.77;279.70;;;13.40;99.90;;;;;;6247110;23;20465;-82
2021/09/27 02:44:31;;;;;;;290.20;276.70;;;13.50;99.90;;;;;;6245882;23;20449;-84
2021/09/27 02:46:58;;;;;;;271.20;258.00;;;13.40;99.90;;;;;;6256939;22;20439;-83
2021/09/27 02:49:30;;;;;;;260.00;247.40;;;13.30;99.90;;;;;;6256728;23;20403;-83
2021/09/27 02:51:59;;;;;;;249.73;236.47;;;13.10;99.90;;;;;;6256750;23;20404;-84
2021/09/27 02:54:33;;;;;;;250.40;236.70;;;13.00;99.90;;;;;;6257122;23;20732;-84
2021/09/27 02:57:15;;;;;;;252.37;239.40;;;12.90;99.90;;;;;;6246558;23;20494;-84
2021/09/27 02:59:54;;;;;;;280.10;266.30;;;13.00;99.90;;;;;;6255394;23;20446;-83
2021/09/27 03:02:27;;;;;;;273.37;258.97;;;12.90;99.90;;;;;;6246831;23;20485;-83
2021/09/27 03:05:05;;;;;;;291.40;276.03;;;13.10;99.90;;;;;;6246430;23;20487;-82
2021/09/27 03:07:44;;;;;;;291.47;276.17;;;12.90;99.90;;;;;;6246977;23;20403;-82
2021/09/27 03:10:25;;;;;;;292.43;277.70;;;12.90;99.90;;;;;;6256877;23;20482;-84
2021/09/27 03:12:56;;;;;;;306.53;290.57;;;12.80;99.90;;;;;;6255780;23;20427;-83
2021/09/27 03:16:07;;;;;;;293.70;279.17;;;12.80;99.90;;;;;;6246751;23;20735;-83
2021/09/27 03:18:46;;;;;;;293.93;279.00;;;12.80;99.90;;;;;;6163205;23;20500;-83
2021/09/27 03:21:28;;;;;;;293.07;278.37;;;12.80;99.90;;;;;;6153591;23;20473;-83
2021/09/27 03:24:07;;;;;;;301.83;287.03;;;12.70;99.90;;;;;;6228755;23;20446;-83
2021/09/27 03:26:48;;;;;;;291.83;277.20;;;12.70;99.90;;;;;;6245915;23;20501;-83
2021/09/27 03:29:27;;;;;;;307.90;292.50;;;12.60;99.90;;;;;;6245240;23;20399;-84
2021/09/27 03:32:02;;;;;;;326.27;310.17;;;12.70;99.90;;;;;;6256521;23;20406;-86
2021/09/27 03:34:38;;;;;;;340.80;323.20;;;12.70;99.90;;;;;;6246243;23;20481;-84
2021/09/27 03:37:26;;;;;;;351.50;333.60;;;12.90;99.90;;;;;;6256287;23;20436;-83
2021/09/27 03:40:09;;;;;;;355.40;337.30;;;13.00;99.90;;;;;;6246503;23;20508;-84
2021/09/27 03:42:44;;;;;;;352.27;333.17;;;13.10;99.90;;;;;;6246415;23;20406;-83
2021/09/27 03:45:16;;;;;;;350.30;332.63;;;13.20;99.90;;;;;;6245149;23;20477;-83
2021/09/27 03:47:52;;;;;;;355.63;337.70;;;13.30;99.90;;;;;;6245759;23;20514;-83
2021/09/27 03:50:25;;;;;;;354.43;336.30;;;13.30;99.90;;;;;;6246393;23;20482;-84
2021/09/27 03:52:57;;;;;;;357.67;339.70;;;13.40;99.90;;;;;;6256272;23;20400;-83
2021/09/27 03:55:31;;;;;;;353.83;335.90;;;13.40;99.90;;;;;;6246431;23;20395;-84
2021/09/27 03:58:05;;;;;;;344.73;327.10;;;13.30;99.90;;;;;;6244444;23;20403;-84
2021/09/27 04:00:35;;;;;;;348.80;331.00;;;13.30;99.90;;;;;;6256285;23;20953;-77
2021/09/27 04:03:10;;;;;;;350.30;332.73;;;13.30;99.90;;;;;;6246181;23;20395;-77
2021/09/27 04:05:49;;;;;;;358.43;340.40;;;13.30;99.90;;;;;;6246308;23;20402;-81
2021/09/27 04:08:26;;;;;;;352.93;334.93;;;13.40;99.90;;;;;;6245893;23;20457;-84
2021/09/27 04:11:11;;;;;;;350.43;332.77;;;13.40;99.90;;;;;;6246157;23;20407;-83
2021/09/27 04:13:53;;;;;;;356.63;338.33;;;13.60;99.90;;;;;;6244879;23;20400;-83
2021/09/27 04:16:34;;;;;;;358.07;339.53;;;13.70;99.90;;;;;;6246228;23;20410;-83
2021/09/27 04:19:11;;;;;;;370.50;350.67;;;13.80;99.90;;;;;;6256119;23;20493;-84
2021/09/27 04:21:48;;;;;;;372.47;352.90;;;13.90;99.90;;;;;;6246119;23;20399;-84
2021/09/27 04:24:31;;;;;;;365.50;346.63;;;13.90;99.90;;;;;;6245703;23;20410;-84
2021/09/27 04:27:25;;;;;;;;;;;;;;;;;;;;;
2021/09/27 04:30:14;;;;;;;367.13;347.73;;;14.30;99.90;;;;;;6252162;23;20894;-84
2021/09/27 04:33:04;;;;;;;362.83;343.80;;;14.30;99.90;;;;;;6246037;23;20403;-83
2021/09/27 04:35:39;;;;;;;343.53;325.57;;;14.40;99.90;;;;;;6245888;23;20426;-84
2021/09/27 04:38:21;;;;;;;346.97;328.93;;;14.50;99.90;;;;;;6255858;23;20412;-84
2021/09/27 04:41:35;;;;;;;334.50;317.30;;;14.60;99.90;;;;;;6242436;23;20427;-82
2021/09/27 04:44:12;;;;;;;341.37;323.83;;;14.60;99.90;;;;;;6222138;23;20496;-78
2021/09/27 04:46:45;;;;;;;320.77;302.53;;;14.60;99.90;;;;;;6245558;23;20505;-78
2021/09/27 04:49:32;;;;;;;308.50;292.43;;;14.70;99.90;;;;;;6255556;23;20401;-78
2021/09/27 04:52:09;;;;;;;301.10;284.80;;;14.70;99.90;;;;;;6245950;23;20451;-82
2021/09/27 04:55:11;;;;;;;284.87;269.97;;;14.70;99.90;;;;;;6245751;23;20632;-77
2021/09/27 04:57:57;;;;;;;285.33;270.33;;;14.60;99.90;;;;;;6246017;23;20403;-82
2021/09/27 05:00:32;;;;;;;275.67;260.97;;;14.70;99.90;;;;;;6255555;23;20442;-79
2021/09/27 05:03:20;;;;;;;283.03;268.57;;;14.80;99.90;;;;;;6245796;23;20806;-81
2021/09/27 05:09:52;;;;;;;266.93;252.93;;;15.00;99.90;;;;;;6237501;23;20462;-85
2021/09/27 05:12:57;;;;;;;256.83;243.63;;;14.80;99.90;;;;;;6255880;23;20406;-84
2021/09/27 05:15:56;;;;;;;243.50;230.70;;;15.00;99.90;;;;;;6255516;23;20407;-82
2021/09/27 05:19:02;;;;;;;230.87;218.27;;;15.00;99.90;;;;;;6217238;23;20431;-82
2021/09/27 05:22:01;;;;;;;231.67;219.03;;;15.10;99.90;;;;;;6245534;23;20395;-83
2021/09/27 05:24:53;;;;;;;221.73;210.03;;;15.10;99.90;;;;;;6245548;23;20471;-84
2021/09/27 05:27:48;;;;;;;223.10;210.73;;;15.10;99.90;;;;;;6255609;23;20760;-84
2021/09/27 05:30:36;;;;;;;204.37;193.03;;;15.20;99.90;;;;;;6245226;23;20440;-84
2021/09/27 05:33:16;;;;;;;196.73;185.83;;;15.10;99.90;;;;;;6255573;23;20407;-84
2021/09/27 05:36:04;;;;;;;183.63;173.13;;;15.20;99.90;;;;;;6245735;23;20397;-83
2021/09/27 05:38:39;;;;;;;181.33;170.60;;;15.20;99.90;;;;;;6245287;23;20994;-82
2021/09/27 05:41:14;;;;;;;175.90;165.80;;;14.90;99.90;;;;;;6255850;23;20409;-82
2021/09/27 05:43:56;;;;;;;179.93;168.93;;;14.90;99.90;;;;;;6254439;23;20487;-84
2021/09/27 05:46:57;;;;;;;176.77;166.47;;;14.80;99.90;;;;;;6255517;23;20519;-81
2021/09/27 05:49:29;;;;;;;179.60;169.00;;;14.70;99.90;;;;;;6255562;23;20412;-83
2021/09/27 05:52:03;;;;;;;182.87;172.30;;;14.60;99.90;;;;;;6245109;23;20947;-82
2021/09/27 05:54:40;;;;;;;186.30;175.50;;;14.60;99.90;;;;;;6255561;23;20411;-82
2021/09/27 05:57:24;;;;;;;194.13;182.60;;;14.50;99.90;;;;;;6255214;23;20427;-83
2021/09/27 05:59:56;;;;;;;214.37;202.57;;;14.50;99.90;;;;;;6254267;23;20529;-84
2021/09/27 06:02:47;;;;;;;214.70;202.90;;;14.50;99.90;;;;;;6247281;23;20431;-85
2021/09/27 06:05:18;;;;;;;215.60;203.20;;;14.60;99.90;;;;;;6257152;23;20738;-83
2021/09/27 06:07:53;;;;;;;221.40;209.40;;;14.70;99.90;;;;;;6247411;23;20817;-85
2021/09/27 06:10:26;;;;;;;223.40;211.27;;;14.80;99.90;;;;;;6257449;23;20430;-82
2021/09/27 06:13:07;;;;;;;209.00;197.60;;;14.70;99.90;;;;;;6256298;23;20409;-83
2021/09/27 06:15:45;;;;;;;207.33;195.50;;;14.90;99.90;;;;;;6247448;23;20402;-84
2021/09/27 06:18:33;;;;;;;207.80;196.43;;;14.90;99.90;;;;;;6257066;23;20416;-83
2021/09/27 06:21:19;;;;;;;199.07;187.67;;;15.00;99.90;;;;;;6257273;23;20845;-84
2021/09/27 06:24:12;;;;;;;180.03;170.10;;;15.20;99.90;;;;;;6257525;23;20395;-84
2021/09/27 06:26:49;;;;;;;181.10;171.57;;;15.20;99.90;;;;;;6257346;23;20443;-82
2021/09/27 06:29:22;;;;;;;169.30;159.80;;;15.20;99.90;;;;;;6256009;23;20416;-84
2021/09/27 06:32:01;;;;;;;167.03;158.03;;;15.30;99.90;;;;;;6246809;23;20456;-83
2021/09/27 06:34:34;;;;;;;164.20;155.13;;;15.30;99.90;;;;;;6247045;23;20400;-84
2021/09/27 06:37:09;;;;;;;157.80;149.40;;;15.50;99.90;;;;;;6247051;23;20497;-83
2021/09/27 06:39:36;;;;;;;148.80;140.73;;;15.40;99.90;;;;;;6246968;23;20489;-84
2021/09/27 06:42:03;;;;;;;147.90;139.90;;;15.70;99.90;;;;;;6247108;23;20485;-88
2021/09/27 06:44:38;;;;;;;131.43;124.13;;;15.70;99.90;;;;;;6255484;23;20444;-86
2021/09/27 06:47:06;;;;;;;122.23;115.07;;;15.90;99.90;;;;;;6256878;23;20444;-83
2021/09/27 06:49:35;;;;;;;113.93;107.73;;;16.10;99.90;;;;;;6257242;23;20406;-85
2021/09/27 06:52:07;;;;;;;105.63;99.03;;;16.10;99.90;;;;;;6256761;23;20423;-85
2021/09/27 06:54:34;;;;;;;99.20;93.17;;;16.20;99.90;;;;;;6257412;23;20411;-83
2021/09/27 07:01:38;;;;;;;;;;;;;;;;;;;;;
2021/09/27 07:04:16;;;;;;;60.23;55.93;;;16.50;99.90;;;;;;6139167;23;20441;-85
2021/09/27 07:07:22;;;;;;;53.17;49.20;;;16.60;99.90;;;;;;6152230;23;20405;-83
2021/09/27 07:09:51;;;;;;;50.37;47.07;;;16.50;99.90;;;;;;6020776;23;20497;-83
2021/09/27 07:29:16;;;;;;;42.80;39.60;;;17.10;99.90;;;;;;5979440;23;20790;-80
2021/09/27 07:32:52;;;;;;;;;;;;;;;;;;;;;
2021/09/27 07:35:58;;;;;;;;;;;;;;;;;;;;;
2021/09/27 08:27:25;;;;;;;16.73;14.67;;;20.10;84.80;;;;;;5834125;24;20487;-83
2021/09/27 08:29:52;;;;;;;20.23;12.93;;;20.60;80.90;;;;;;6029890;23;20863;-81
2021/09/27 08:32:19;;;;;;;16.50;13.90;;;20.90;79.30;;;;;;6244260;23;20849;-81
2021/09/27 08:35:38;;;;;;;16.70;12.60;;;21.20;74.80;;;;;;6246043;23;20436;-85
2021/09/27 08:38:27;;;;;;;11.80;8.83;;;21.40;71.90;;;;;;6244815;23;20410;-86
2021/09/27 08:41:06;;;;;;;11.90;9.60;;;21.70;68.60;;;;;;6256073;23;20440;-85
2021/09/27 08:44:00;;;;;;;10.80;9.60;;;21.80;65.00;;;;;;6254542;23;20442;-83
2021/09/27 08:53:35;;;;;;;10.63;8.63;;;22.10;60.00;;;;;;6081282;23;20532;-84
2021/09/27 08:56:06;;;;;;;14.20;10.33;;;22.30;61.30;;;;;;6133309;23;20463;-82
2021/09/27 08:58:43;;;;;;;13.67;9.93;;;22.20;60.70;;;;;;6225944;23;20415;-81
2021/09/27 09:01:45;;;;;;;8.67;6.60;;;21.90;61.10;;;;;;6255595;23;20461;-80
2021/09/27 09:27:15;;;;;;;8.53;5.40;;;22.30;55.30;;;;;;6173376;23;20955;-84
2021/09/27 09:29:44;;;;;;;9.75;5.80;;;22.60;54.40;;;;;;6193145;23;20506;-84
2021/09/27 09:32:40;;;;;;;10.40;5.03;;;22.50;52.30;;;;;;6194767;23;20224;-88
2021/09/27 09:35:44;;;;;;;8.30;5.57;;;22.30;51.60;;;;;;6178971;23;20746;-83
2021/09/27 09:38:44;;;;;;;6.07;4.10;;;22.20;53.10;;;;;;6153807;23;20412;-83
2021/09/27 09:41:44;;;;;;;11.43;4.87;;;22.10;55.20;;;;;;6179535;23;20939;-87
2021/09/27 09:44:24;;;;;;;11.47;5.60;;;21.90;54.80;;;;;;6182764;23;20422;-81
2021/09/27 09:47:17;;;;;;;10.60;5.60;;;21.70;54.80;;;;;;6187325;23;20407;-86
2021/09/27 09:53:54;;;;;;;8.63;6.43;;;21.50;55.50;;;;;;5925537;24;20903;-85
2021/09/27 09:56:54;;;;;;;6.37;4.90;;;21.20;56.40;;;;;;5991913;23;20500;-89
2021/09/27 09:59:28;;;;;;;14.83;5.10;;;21.20;58.80;;;;;;6055148;23;20419;-86
2021/09/27 10:02:01;;;;;;;7.20;4.70;;;21.30;56.80;;;;;;6187287;23;20412;-87
2021/09/27 10:08:00;;;;;;;7.57;3.83;;;21.20;56.80;;;;;;6128272;23;20414;-86
2021/09/27 10:10:35;;;;;;;7.60;4.53;;;21.30;57.20;;;;;;6187141;23;20401;-85
2021/09/27 10:15:45;;;;;;;7.80;5.00;;;21.40;57.00;;;;;;6194248;23;20822;-85
2021/09/27 10:18:22;;;;;;;8.80;4.97;;;21.50;56.70;;;;;;6247537;23;20448;-83
2021/09/27 10:21:09;;;;;;;7.10;4.27;;;21.50;57.00;;;;;;6257165;22;20441;-85
2021/09/27 10:23:39;;;;;;;8.43;4.90;;;21.40;57.40;;;;;;6239978;23;20425;-88
2021/09/27 10:26:15;;;;;;;7.10;3.70;;;21.50;54.60;;;;;;6256526;22;20414;-84
2021/09/27 10:28:42;;;;;;;6.20;3.20;;;21.70;54.80;;;;;;6254775;23;20415;-86
2021/09/27 10:31:11;;;;;;;5.13;2.60;;;21.70;52.40;;;;;;6246464;23;20402;-87
2021/09/27 10:33:43;;;;;;;8.10;3.67;;;21.80;52.70;;;;;;6246834;23;20725;-87
2021/09/27 10:36:17;;;;;;;7.10;3.10;;;21.90;52.70;;;;;;6256995;23;20400;-85
2021/09/27 10:38:46;;;;;;;5.43;3.50;;;22.10;50.50;;;;;;6255940;22;20468;-85
2021/09/27 10:41:19;;;;;;;7.50;3.20;;;22.30;51.40;;;;;;6256768;23;20430;-86
2021/09/27 10:43:48;;;;;;;7.83;3.57;;;22.40;47.60;;;;;;6255025;23;20721;-85
2021/09/27 10:46:17;;;;;;;5.90;3.03;;;22.50;46.70;;;;;;6247029;23;20402;-85
2021/09/27 10:48:50;;;;;;;10.07;3.87;;;22.60;46.80;;;;;;6246105;23;20401;-85
2021/09/27 10:51:21;;;;;;;6.70;4.00;;;22.80;46.70;;;;;;6247429;23;20780;-86
2021/09/27 10:53:54;;;;;;;7.10;3.37;;;22.80;44.50;;;;;;6246604;23;20403;-89
2021/09/27 10:56:28;;;;;;;7.30;2.77;;;23.50;42.90;;;;;;6246420;23;20499;-89
2021/09/27 10:58:59;;;;;;;6.63;2.80;;;23.90;38.90;;;;;;6255396;23;20403;-89
2021/09/27 11:01:43;;;;;;;8.63;4.03;;;23.90;35.30;;;;;;6246674;23;20461;-88
2021/09/27 11:04:15;;;;;;;6.47;2.60;;;23.80;37.30;;;;;;6206674;22;20456;-84
2021/09/27 11:06:51;;;;;;;8.70;3.00;;;23.50;36.90;;;;;;6186273;23;20807;-86
2021/09/27 11:09:31;;;;;;;7.60;3.33;;;23.30;38.40;;;;;;6185250;23;20432;-88
2021/09/27 11:12:03;;;;;;;8.77;3.53;;;23.50;37.40;;;;;;6195903;23;20727;-88
2021/09/27 11:14:44;;;;;;;5.60;2.90;;;23.40;37.50;;;;;;6194266;23;20444;-87
2021/09/27 11:17:44;;;;;;;12.30;3.63;;;23.60;38.70;;;;;;6194542;23;20412;-85
2021/09/27 12:00:35;;;;;;;5.83;2.20;;;22.30;38.20;;;;;;6179125;23;20774;-82
2021/09/27 13:09:37;;;;;;;;;;;;;;;;;;;;;
2021/09/27 13:21:47;;;;;;;6.10;3.27;;;21.30;43.60;;;;;;6156692;23;20449;-83
2021/09/27 13:24:35;;;;;;;6.53;2.90;;;21.40;47.50;;;;;;6167124;23;20438;-83
2021/09/27 13:27:34;;;;;;;;;;;;;;;;;;;;;
2021/09/27 13:37:01;;;;;;;4.87;3.13;;;21.00;47.80;;;;;;5969431;23;20424;-85
2021/09/27 13:54:47;;;;;;;6.07;3.43;;;20.70;49.40;;;;;;6151633;23;20472;-83
2021/09/27 13:58:26;;;;;;;5.33;3.13;;;20.60;51.50;;;;;;6183978;23;20949;-83
2021/09/27 14:01:51;;;;;;;;;;;;;;;;;;;;;
2021/09/27 14:08:16;;;;;;;;;;;;;;;;;;;;;
2021/09/27 14:11:23;;;;;;;7.37;3.63;;;20.10;56.90;;;;;;6027367;23;20428;-84
2021/09/27 14:14:31;;;;;;;;;;;;;;;;;;;;;
2021/09/27 14:28:52;;;;;;;;;;;;;;;;;;;;;
2021/09/27 14:35:21;;;;;;;8.87;3.73;;;19.90;60.90;;;;;;5979538;24;20417;-83
2021/09/27 14:37:56;;;;;;;8.90;4.60;;;19.80;63.40;;;;;;5981222;24;20797;-83
2021/09/27 14:41:14;;;;;;;;;;;;;;;;;;;;;
2021/09/27 14:47:19;;;;;;;9.90;8.17;;;19.20;79.90;;;;;;5964553;23;20417;-83
2021/09/27 14:53:17;;;;;;;;;;;;;;;;;;;;;
2021/09/27 14:55:57;;;;;;;14.30;13.00;;;18.20;98.00;;;;;;6226575;23;20404;-84
2021/09/27 14:58:57;;;;;;;;;;;;;;;;;;;;;
2021/09/27 15:05:24;;;;;;;39.80;37.80;;;18.10;99.90;;;;;;6031650;23;20943;-84
2021/09/27 15:29:27;;;;;;;53.93;51.47;;;18.00;99.90;;;;;;5968923;24;20414;-83
2021/09/27 15:35:27;;;;;;;79.70;76.00;;;17.90;99.90;;;;;;6031969;23;20733;-83
2021/09/27 15:41:24;;;;;;;97.47;92.43;;;17.70;99.90;;;;;;5984049;23;20417;-83
2021/09/27 15:44:28;;;;;;;;;;;;;;;;;;;;;
2021/09/27 15:47:31;;;;;;;116.70;110.50;;;17.50;99.90;;;;;;6041904;23;20450;-83
2021/09/27 15:50:00;;;;;;;114.73;109.17;;;17.50;99.90;;;;;;6074438;23;21128;-83
2021/09/27 15:52:37;;;;;;;126.37;119.63;;;17.40;99.90;;;;;;6125497;23;20410;-83
2021/09/27 15:55:28;;;;;;;123.47;116.97;;;17.40;99.90;;;;;;6214376;23;20421;-83
2021/09/27 15:59:03;;;;;;;;;;;;;;;;;;;;;
2021/09/27 16:05:21;;;;;;;;;;;;;;;;;;;;;
2021/09/27 16:08:02;;;;;;;176.17;167.63;;;17.20;99.90;;;;;;6254667;23;20397;-82
2021/09/27 16:10:51;;;;;;;187.73;178.77;;;17.30;99.90;;;;;;6255028;23;20405;-82
2021/09/27 16:13:34;;;;;;;168.13;160.43;;;17.30;99.90;;;;;;6236539;23;20715;-84
2021/09/27 16:16:42;;;;;;;162.70;155.10;;;17.10;99.90;;;;;;6246233;23;20770;-85
2021/09/27 16:19:29;;;;;;;;;;;;;;;;;;;;;
2021/09/27 16:22:07;;;;;;;172.80;163.53;;;17.10;99.90;;;;;;6162997;23;20422;-83
2021/09/27 16:25:11;;;;;;;;;;;;;;;;;;;;;
2021/09/27 16:27:54;;;;;;;;;;;;;;;;;;;;;
2021/09/27 16:41:00;;;;;;;51.57;49.07;;;14.40;99.90;;;;;;5958606;23;20745;-87
2021/09/27 16:43:36;;;;;;;49.90;47.40;;;14.20;99.90;;;;;;6067411;23;20445;-87
2021/09/27 16:46:12;;;;;;;59.47;56.67;;;14.00;99.90;;;;;;6123155;23;20420;-86
2021/09/27 16:52:22;;;;;;;;;;;;;;;;;;;;;
2021/09/27 16:55:21;;;;;;;69.73;66.73;;;13.80;99.90;;;;;;5889800;23;20751;-88
2021/09/27 16:58:06;;;;;;;84.73;80.60;;;14.00;99.90;;;;;;6018662;23;20517;-86
2021/09/27 17:00:48;;;;;;;;;;;;;;;;;;;;;
2021/09/27 17:06:34;;;;;;;86.37;82.87;;;13.90;99.90;;;;;;6183238;22;20494;-85
2021/09/27 17:09:16;;;;;;;87.70;83.90;;;13.80;99.90;;;;;;6256188;22;20412;-85
2021/09/27 17:11:58;;;;;;;81.33;78.10;;;13.90;99.90;;;;;;6255691;23;20461;-85
2021/09/27 18:28:07;;;;;;;162.57;155.10;;;13.60;99.90;;;;;;5840412;24;20505;-84
2021/09/27 18:30:50;;;;;;;163.43;155.73;;;13.70;99.90;;;;;;5956005;23;20510;-85
2021/09/27 18:34:03;;;;;;;154.23;147.23;;;13.70;99.90;;;;;;6008410;23;20414;-85
2021/09/27 18:37:11;;;;;;;;;;;;;;;;;;;;;
2021/09/27 18:43:05;;;;;;;146.27;139.23;;;13.50;99.90;;;;;;6073310;23;20451;-84
2021/09/27 18:45:55;;;;;;;151.00;144.13;;;13.50;99.90;;;;;;6008337;23;20458;-84
2021/09/27 18:48:34;;;;;;;151.77;144.80;;;13.40;99.90;;;;;;6095196;23;20459;-84
2021/09/27 18:51:24;;;;;;;160.20;152.57;;;13.40;99.90;;;;;;6104763;23;20874;-85
2021/09/27 18:56:45;;;;;;;172.63;164.73;;;13.20;99.90;;;;;;6072331;23;20424;-84
2021/09/27 19:02:50;;;;;;;172.37;164.37;;;13.30;99.90;;;;;;6068664;23;20459;-85
2021/09/27 19:08:48;;;;;;;;;;;;;;;;;;;;;
2021/09/27 19:11:43;;;;;;;;;;;;;;;;;;;;;
2021/09/27 19:17:50;;;;;;;194.13;184.80;;;13.00;99.90;;;;;;6092786;23;20799;-84
2021/09/27 19:24:06;;;;;;;213.53;203.10;;;13.10;99.90;;;;;;5949626;24;21098;-84
2021/09/27 19:29:52;;;;;;;213.30;202.57;;;13.00;99.90;;;;;;5960945;23;20949;-84
2021/09/27 19:32:26;;;;;;;221.00;210.00;;;12.90;99.90;;;;;;5984154;23;20430;-84
2021/09/27 19:35:24;;;;;;;217.93;208.30;;;12.90;99.90;;;;;;6018481;23;20427;-84
2021/09/27 19:41:23;;;;;;;220.73;210.23;;;12.90;99.90;;;;;;5945841;23;20424;-85
2021/09/27 19:47:01;;;;;;;233.83;223.57;;;12.80;99.90;;;;;;6092193;23;20479;-84
2021/09/27 19:52:40;;;;;;;245.37;233.97;;;12.70;99.90;;;;;;6234120;23;20408;-84
2021/09/27 19:55:34;;;;;;;248.03;237.27;;;12.70;99.90;;;;;;6256468;23;20415;-84
2021/09/27 19:58:33;;;;;;;252.83;242.33;;;12.70;99.90;;;;;;6256180;23;20486;-84
2021/09/27 20:01:28;;;;;;;259.13;247.43;;;12.60;99.90;;;;;;6246024;23;20888;-84
2021/09/27 20:04:00;;;;;;;256.93;245.40;;;12.50;99.90;;;;;;6256240;23;20445;-84
2021/09/27 20:06:32;;;;;;;262.27;250.60;;;12.50;99.90;;;;;;6256549;23;20400;-84
2021/09/27 20:09:21;;;;;;;257.07;245.87;;;12.60;99.90;;;;;;6256141;23;20411;-84
2021/09/27 20:11:54;;;;;;;255.63;244.50;;;12.50;99.90;;;;;;6237952;23;20403;-83
2021/09/27 20:14:35;;;;;;;262.50;249.87;;;12.40;99.90;;;;;;6244930;23;20777;-84
2021/09/27 20:17:14;;;;;;;264.17;252.77;;;12.40;99.90;;;;;;6255967;23;20773;-84
2021/09/27 20:20:08;;;;;;;;;;;;;;;;;;;;;
2021/09/27 20:22:55;;;;;;;257.50;246.43;;;12.40;99.90;;;;;;6255813;23;20747;-85
2021/09/27 20:25:27;;;;;;;252.50;241.60;;;12.30;99.90;;;;;;6245698;23;20443;-83
2021/09/27 20:28:04;;;;;;;246.17;235.63;;;12.30;99.90;;;;;;6255923;23;20407;-84
2021/09/27 20:30:42;;;;;;;235.70;225.47;;;12.40;99.90;;;;;;6244300;23;20405;-84
2021/09/27 20:33:19;;;;;;;;;;;;;;;;;;;;;
2021/09/27 20:36:02;;;;;;;240.57;230.03;;;12.10;99.90;;;;;;6245748;23;20399;-84
2021/09/27 20:38:29;;;;;;;225.70;215.40;;;12.20;99.90;;;;;;6246024;23;20407;-84
2021/09/27 20:41:03;;;;;;;240.20;229.63;;;11.90;99.90;;;;;;6245832;23;20423;-84
2021/09/27 20:43:33;;;;;;;245.73;234.90;;;11.80;99.90;;;;;;6243923;23;20946;-84
2021/09/27 20:46:05;;;;;;;243.00;232.20;;;11.80;99.90;;;;;;6255980;23;20403;-83
2021/09/27 20:48:33;;;;;;;237.10;226.90;;;11.70;99.90;;;;;;6255834;23;20905;-84
2021/09/27 20:51:04;;;;;;;244.70;234.00;;;11.70;99.90;;;;;;6256262;23;20411;-84
2021/09/27 20:53:35;;;;;;;244.40;234.27;;;11.60;99.90;;;;;;6255969;23;20444;-83
2021/09/27 20:56:09;;;;;;;238.07;227.73;;;11.70;99.90;;;;;;6245545;23;20983;-84
2021/09/27 20:58:53;;;;;;;;;;;;;;;;;;;;;
2021/09/27 21:01:46;;;;;;;241.57;231.20;;;11.60;99.90;;;;;;6244975;23;20748;-84
2021/09/27 21:04:22;;;;;;;247.77;237.20;;;11.60;99.90;;;;;;6187688;23;20967;-84
2021/09/27 21:06:54;;;;;;;246.00;235.40;;;11.50;99.90;;;;;;6245388;23;20399;-84
2021/09/27 21:09:23;;;;;;;250.77;239.90;;;11.50;99.90;;;;;;6255903;23;20435;-84
2021/09/27 21:11:50;;;;;;;250.60;239.90;;;11.70;99.90;;;;;;6245596;23;20404;-84
2021/09/27 21:14:19;;;;;;;262.30;250.50;;;11.50;99.90;;;;;;6254589;23;20407;-83